ADDS TAF Board (Experimental) INFO Settings
IDs: Format: Expanded Condensed

KSTL - St Louis/Lambert Int, MO, US

Issued at 2320 UTC 30 Jul 2016
Updated at 0139 UTC 31 Jul 2016
Time0051Z 31/02Z 31/03Z 31/04Z 31/05Z 31/06Z 31/07Z 31/08Z 31/09Z 31/10Z 31/11Z 31/12Z 31/13Z 31/14Z
Type OBS PRVL PRVL PRVL PRVL PRVL PRVL PRVL PRVL PRVL PRVL PRVL PRVL PRVL
VIS 10 >6 >6 >6 >6 >6 >6 >6 >6 >6 >6 >6 >6 >6
CIG -- -- -- -- -- -- -- -- -- -- -- -- -- --
Cover SCT FEW FEW FEW FEW FEW FEW FEW FEW FEW FEW FEW FEW FEW
FltCat VFR VFR VFR VFR VFR VFR VFR VFR VFR VFR VFR VFR VFR VFR
WX -- -- -- -- -- -- -- -- -- -- -- -- -- --
WDir 350 VRB VRB VRB VRB VRB VRB VRB VRB VRB VRB VRB VRB VRB
WSpd 4 3 3 3 3 3 3 3 3 3 3 3 3 3
WGst -- -- -- -- -- -- -- -- -- -- -- -- -- --
R06/24
XWnd 4 VRB VRB VRB VRB VRB VRB VRB VRB VRB VRB VRB VRB VRB
HWnd 1 VRB VRB VRB VRB VRB VRB VRB VRB VRB VRB VRB VRB VRB
R11/29
XWnd 3 VRB VRB VRB VRB VRB VRB VRB VRB VRB VRB VRB VRB VRB
HWnd -3 VRB VRB VRB VRB VRB VRB VRB VRB VRB VRB VRB VRB VRB
R12/30
XWnd 3 VRB VRB VRB VRB VRB VRB VRB VRB VRB VRB VRB VRB VRB
HWnd -3 VRB VRB VRB VRB VRB VRB VRB VRB VRB VRB VRB VRB VRB

Raw TAF
KSTL 302320Z 3100/0106 30006KT P6SM FEW040
  FM310200 VRB03KT P6SM FEW250
  FM312100 VRB04KT P6SM SCT120


Raw METAR
KSTL 310051Z 35004KT 10SM FEW150 SCT250 27/19 A2996 RMK AO2 SLP131 T02670189
KSTL 302351Z 36007KT 10SM FEW047 SCT150 SCT250 28/19 A2996 RMK AO2 SLP134 T02830189 10306 20278 56006
KSTL 302251Z 35008KT 10SM FEW043 SCT250 28/18 A2997 RMK AO2 SLP136 T02830183

METAR Board
Radar Display
Forecast Discussion

TAF Board Legend

Potential Impact
Threat None Slight Moderate High
Visibility (sm) ≥5.1 5.1>X≥3 3>X≥1 <1
Ceiling (100 ft) ≥30.1 30.1>X≥10 10>X≥5 <5
Wind Speed (kt) <10 10≤X<20 20≤X<30 ≥30
Wind Gust (kt) <15 15≤X<25 25≤X<35 ≥35
Weather No Wx Reported VCTS,-TS,-FZRA,SN TS,FZRA +TS,+FZRA,+SN